sensor_id;sensor_type;location;lat;lon;timestamp;pressure;altitude;pressure_sealevel;temperature;humidity
42111;BME280;27766;52.174;5.456;2022-12-07T00:01:34;101721.28;;;2.85;100.00
42111;BME280;27766;52.174;5.456;2022-12-07T00:04:02;101704.88;;;2.81;100.00
42111;BME280;27766;52.174;5.456;2022-12-07T00:06:35;101712.53;;;2.81;100.00
42111;BME280;27766;52.174;5.456;2022-12-07T00:09:04;101711.38;;;2.76;100.00
42111;BME280;27766;52.174;5.456;2022-12-07T00:11:33;101704.47;;;2.75;100.00
42111;BME280;27766;52.174;5.456;2022-12-07T00:14:05;101709.31;;;2.71;100.00
42111;BME280;27766;52.174;5.456;2022-12-07T00:16:34;101702.94;;;2.64;100.00
42111;BME280;27766;52.174;5.456;2022-12-07T00:19:03;101711.56;;;2.66;100.00
42111;BME280;27766;52.174;5.456;2022-12-07T00:21:32;101696.75;;;2.60;100.00
42111;BME280;27766;52.174;5.456;2022-12-07T00:24:00;101699.28;;;2.60;100.00
42111;BME280;27766;52.174;5.456;2022-12-07T00:26:32;101698.22;;;2.57;100.00
42111;BME280;27766;52.174;5.456;2022-12-07T00:29:05;101704.97;;;2.56;100.00
42111;BME280;27766;52.174;5.456;2022-12-07T00:31:35;101694.53;;;2.53;100.00
42111;BME280;27766;52.174;5.456;2022-12-07T00:34:07;101683.16;;;2.48;100.00
42111;BME280;27766;52.174;5.456;2022-12-07T00:36:38;101667.34;;;2.40;100.00
42111;BME280;27766;52.174;5.456;2022-12-07T00:39:05;101678.66;;;2.44;100.00
42111;BME280;27766;52.174;5.456;2022-12-07T00:41:32;101679.59;;;2.46;100.00
42111;BME280;27766;52.174;5.456;2022-12-07T00:43:59;101677.56;;;2.40;100.00
42111;BME280;27766;52.174;5.456;2022-12-07T00:46:27;101675.97;;;2.42;100.00
42111;BME280;27766;52.174;5.456;2022-12-07T00:48:55;101682.69;;;2.40;100.00
42111;BME280;27766;52.174;5.456;2022-12-07T00:51:24;101685.09;;;2.38;100.00
42111;BME280;27766;52.174;5.456;2022-12-07T00:53:51;101681.59;;;2.36;100.00
42111;BME280;27766;52.174;5.456;2022-12-07T00:56:24;101678.03;;;2.34;100.00
42111;BME280;27766;52.174;5.456;2022-12-07T00:58:57;101688.16;;;2.33;100.00
42111;BME280;27766;52.174;5.456;2022-12-07T01:01:26;101688.94;;;2.32;100.00
42111;BME280;27766;52.174;5.456;2022-12-07T01:03:54;101671.63;;;2.28;100.00
42111;BME280;27766;52.174;5.456;2022-12-07T01:06:22;101687.09;;;2.29;100.00
42111;BME280;27766;52.174;5.456;2022-12-07T01:08:50;101681.06;;;2.29;100.00
42111;BME280;27766;52.174;5.456;2022-12-07T01:11:20;101675.88;;;2.27;100.00
42111;BME280;27766;52.174;5.456;2022-12-07T01:13:50;101680.91;;;2.26;100.00
42111;BME280;27766;52.174;5.456;2022-12-07T01:16:19;101685.88;;;2.24;100.00
42111;BME280;27766;52.174;5.456;2022-12-07T01:18:49;101686.66;;;2.23;100.00
42111;BME280;27766;52.174;5.456;2022-12-07T01:21:21;101682.38;;;2.22;100.00
42111;BME280;27766;52.174;5.456;2022-12-07T01:23:49;101672.81;;;2.19;100.00
42111;BME280;27766;52.174;5.456;2022-12-07T01:26:19;101684.63;;;2.17;100.00
42111;BME280;27766;52.174;5.456;2022-12-07T01:28:47;101679.06;;;2.11;100.00
42111;BME280;27766;52.174;5.456;2022-12-07T01:31:19;101690.28;;;2.13;100.00
42111;BME280;27766;52.174;5.456;2022-12-07T01:33:50;101685.00;;;2.10;100.00
42111;BME280;27766;52.174;5.456;2022-12-07T01:36:32;101684.09;;;2.10;100.00
42111;BME280;27766;52.174;5.456;2022-12-07T01:39:02;101686.47;;;2.07;100.00
42111;BME280;27766;52.174;5.456;2022-12-07T01:41:32;101686.47;;;2.07;100.00
42111;BME280;27766;52.174;5.456;2022-12-07T01:44:23;101694.78;;;2.04;100.00
42111;BME280;27766;52.174;5.456;2022-12-07T01:46:52;101687.03;;;2.02;100.00
42111;BME280;27766;52.174;5.456;2022-12-07T01:51:58;101689.19;;;1.96;100.00
42111;BME280;27766;52.174;5.456;2022-12-07T01:54:27;101685.13;;;1.86;100.00
42111;BME280;27766;52.174;5.456;2022-12-07T01:56:56;101691.19;;;1.88;100.00
42111;BME280;27766;52.174;5.456;2022-12-07T01:59:25;101682.16;;;1.80;100.00
42111;BME280;27766;52.174;5.456;2022-12-07T02:01:54;101695.03;;;1.82;100.00
42111;BME280;27766;52.174;5.456;2022-12-07T02:04:23;101691.41;;;1.78;100.00
42111;BME280;27766;52.174;5.456;2022-12-07T02:06:51;101697.47;;;1.80;100.00
42111;BME280;27766;52.174;5.456;2022-12-07T02:09:18;101687.84;;;1.76;100.00
42111;BME280;27766;52.174;5.456;2022-12-07T02:11:45;101685.38;;;1.78;100.00
42111;BME280;27766;52.174;5.456;2022-12-07T02:14:13;101679.50;;;1.79;100.00
42111;BME280;27766;52.174;5.456;2022-12-07T02:17:17;101661.13;;;1.71;100.00
42111;BME280;27766;52.174;5.456;2022-12-07T02:20:12;101686.59;;;1.83;100.00
42111;BME280;27766;52.174;5.456;2022-12-07T02:25:47;101677.03;;;1.80;100.00
42111;BME280;27766;52.174;5.456;2022-12-07T02:28:33;101677.47;;;1.86;100.00
42111;BME280;27766;52.174;5.456;2022-12-07T02:31:06;101676.00;;;1.90;100.00
42111;BME280;27766;52.174;5.456;2022-12-07T02:33:42;101674.53;;;1.94;100.00
42111;BME280;27766;52.174;5.456;2022-12-07T02:36:17;101673.84;;;1.96;100.00
42111;BME280;27766;52.174;5.456;2022-12-07T02:38:55;101665.97;;;1.93;100.00
42111;BME280;27766;52.174;5.456;2022-12-07T02:41:35;101661.09;;;1.96;100.00
42111;BME280;27766;52.174;5.456;2022-12-07T02:44:07;101670.63;;;1.99;100.00
42111;BME280;27766;52.174;5.456;2022-12-07T02:46:40;101658.06;;;2.02;100.00
42111;BME280;27766;52.174;5.456;2022-12-07T02:49:10;101664.25;;;2.05;100.00
42111;BME280;27766;52.174;5.456;2022-12-07T02:51:56;101653.53;;;1.98;100.00
42111;BME280;27766;52.174;5.456;2022-12-07T02:54:23;101657.47;;;2.06;100.00
42111;BME280;27766;52.174;5.456;2022-12-07T02:56:58;101666.31;;;2.11;100.00
42111;BME280;27766;52.174;5.456;2022-12-07T03:02:58;101666.44;;;2.13;100.00
42111;BME280;27766;52.174;5.456;2022-12-07T03:05:42;101668.69;;;2.08;100.00
42111;BME280;27766;52.174;5.456;2022-12-07T03:08:20;101670.16;;;2.04;100.00
42111;BME280;27766;52.174;5.456;2022-12-07T03:11:00;101672.59;;;2.03;100.00
42111;BME280;27766;52.174;5.456;2022-12-07T03:13:49;101672.00;;;2.07;100.00
42111;BME280;27766;52.174;5.456;2022-12-07T03:19:17;101668.00;;;2.11;100.00
42111;BME280;27766;52.174;5.456;2022-12-07T03:21:51;101671.63;;;2.14;100.00
42111;BME280;27766;52.174;5.456;2022-12-07T03:24:27;101667.31;;;2.13;100.00
42111;BME280;27766;52.174;5.456;2022-12-07T03:27:13;101656.91;;;2.10;100.00
42111;BME280;27766;52.174;5.456;2022-12-07T03:29:49;101663.97;;;2.14;100.00
42111;BME280;27766;52.174;5.456;2022-12-07T03:35:00;101670.06;;;2.16;100.00
42111;BME280;27766;52.174;5.456;2022-12-07T03:37:38;101664.97;;;2.16;100.00
42111;BME280;27766;52.174;5.456;2022-12-07T03:40:44;101658.84;;;2.14;100.00
42111;BME280;27766;52.174;5.456;2022-12-07T03:43:14;101657.69;;;2.09;100.00
42111;BME280;27766;52.174;5.456;2022-12-07T03:45:43;101646.16;;;2.02;100.00
42111;BME280;27766;52.174;5.456;2022-12-07T03:50:54;101647.06;;;2.03;100.00
42111;BME280;27766;52.174;5.456;2022-12-07T03:53:33;101643.72;;;2.04;100.00
42111;BME280;27766;52.174;5.456;2022-12-07T03:56:02;101655.69;;;2.05;100.00
42111;BME280;27766;52.174;5.456;2022-12-07T03:58:30;101656.69;;;2.07;100.00
42111;BME280;27766;52.174;5.456;2022-12-07T04:00:58;101642.84;;;2.03;100.00
42111;BME280;27766;52.174;5.456;2022-12-07T04:03:25;101653.34;;;2.08;100.00
42111;BME280;27766;52.174;5.456;2022-12-07T04:05:53;101647.47;;;2.09;100.00
42111;BME280;27766;52.174;5.456;2022-12-07T04:08:20;101634.69;;;2.09;100.00
42111;BME280;27766;52.174;5.456;2022-12-07T04:10:47;101633.53;;;2.17;100.00
42111;BME280;27766;52.174;5.456;2022-12-07T04:13:14;101639.22;;;2.27;100.00
42111;BME280;27766;52.174;5.456;2022-12-07T04:15:41;101625.47;;;2.25;100.00
42111;BME280;27766;52.174;5.456;2022-12-07T04:18:09;101625.47;;;2.25;100.00
42111;BME280;27766;52.174;5.456;2022-12-07T04:20:36;101621.94;;;2.22;100.00
42111;BME280;27766;52.174;5.456;2022-12-07T04:23:03;101627.03;;;2.22;100.00
42111;BME280;27766;52.174;5.456;2022-12-07T04:25:30;101628.41;;;2.17;100.00
42111;BME280;27766;52.174;5.456;2022-12-07T04:27:57;101630.97;;;2.17;100.00
42111;BME280;27766;52.174;5.456;2022-12-07T04:30:24;101635.97;;;2.16;100.00
42111;BME280;27766;52.174;5.456;2022-12-07T04:32:51;101632.16;;;2.09;100.00
42111;BME280;27766;52.174;5.456;2022-12-07T04:35:18;101633.00;;;2.10;100.00
42111;BME280;27766;52.174;5.456;2022-12-07T04:37:46;101619.94;;;2.05;100.00
42111;BME280;27766;52.174;5.456;2022-12-07T04:40:13;101636.34;;;2.09;100.00
42111;BME280;27766;52.174;5.456;2022-12-07T04:42:41;101632.03;;;2.08;100.00
42111;BME280;27766;52.174;5.456;2022-12-07T04:45:08;101637.03;;;2.06;100.00
42111;BME280;27766;52.174;5.456;2022-12-07T04:47:35;101625.44;;;1.98;100.00
42111;BME280;27766;52.174;5.456;2022-12-07T04:50:03;101627.81;;;2.08;100.00
42111;BME280;27766;52.174;5.456;2022-12-07T04:52:31;101634.09;;;2.13;100.00
42111;BME280;27766;52.174;5.456;2022-12-07T04:54:59;101629.06;;;2.15;100.00
42111;BME280;27766;52.174;5.456;2022-12-07T04:57:26;101619.38;;;2.09;100.00
42111;BME280;27766;52.174;5.456;2022-12-07T04:59:53;101624.66;;;2.12;100.00
42111;BME280;27766;52.174;5.456;2022-12-07T05:02:20;101621.03;;;2.09;100.00
42111;BME280;27766;52.174;5.456;2022-12-07T05:04:47;101613.97;;;2.04;100.00
42111;BME280;27766;52.174;5.456;2022-12-07T05:07:14;101608.75;;;2.03;100.00
42111;BME280;27766;52.174;5.456;2022-12-07T05:09:41;101610.72;;;2.07;100.00
42111;BME280;27766;52.174;5.456;2022-12-07T05:12:08;101612.28;;;2.05;100.00
42111;BME280;27766;52.174;5.456;2022-12-07T05:14:36;101601.75;;;2.00;100.00
42111;BME280;27766;52.174;5.456;2022-12-07T05:17:03;101613.97;;;2.04;100.00
42111;BME280;27766;52.174;5.456;2022-12-07T05:19:31;101604.91;;;1.96;100.00
42111;BME280;27766;52.174;5.456;2022-12-07T05:21:58;101607.16;;;1.92;100.00
42111;BME280;27766;52.174;5.456;2022-12-07T05:24:25;101625.44;;;1.98;100.00
42111;BME280;27766;52.174;5.456;2022-12-07T05:26:52;101629.66;;;1.97;100.00
42111;BME280;27766;52.174;5.456;2022-12-07T05:29:19;101617.97;;;1.87;100.00
42111;BME280;27766;52.174;5.456;2022-12-07T05:31:46;101618.16;;;1.90;100.00
42111;BME280;27766;52.174;5.456;2022-12-07T05:34:14;101615.69;;;1.92;100.00
42111;BME280;27766;52.174;5.456;2022-12-07T05:36:41;101623.09;;;1.87;100.00
42111;BME280;27766;52.174;5.456;2022-12-07T05:39:08;101618.44;;;1.82;100.00
42111;BME280;27766;52.174;5.456;2022-12-07T05:41:35;101619.44;;;1.84;100.00
42111;BME280;27766;52.174;5.456;2022-12-07T05:44:21;101624.63;;;1.85;100.00
42111;BME280;27766;52.174;5.456;2022-12-07T05:46:48;101636.63;;;1.86;100.00
42111;BME280;27766;52.174;5.456;2022-12-07T05:49:15;101617.53;;;1.81;100.00
42111;BME280;27766;52.174;5.456;2022-12-07T05:51:42;101632.97;;;1.83;100.00
42111;BME280;27766;52.174;5.456;2022-12-07T05:54:09;101615.78;;;1.80;100.00
42111;BME280;27766;52.174;5.456;2022-12-07T05:56:37;101616.59;;;1.79;100.00
42111;BME280;27766;52.174;5.456;2022-12-07T05:59:04;101620.09;;;1.81;100.00
42111;BME280;27766;52.174;5.456;2022-12-07T06:01:53;101633.47;;;1.90;100.00
42111;BME280;27766;52.174;5.456;2022-12-07T06:04:22;101625.81;;;1.90;100.00
42111;BME280;27766;52.174;5.456;2022-12-07T06:06:49;101627.59;;;1.92;100.00
42111;BME280;27766;52.174;5.456;2022-12-07T06:09:17;101625.81;;;1.90;100.00
42111;BME280;27766;52.174;5.456;2022-12-07T06:11:45;101624.03;;;1.89;100.00
42111;BME280;27766;52.174;5.456;2022-12-07T06:14:34;101628.19;;;1.87;100.00
42111;BME280;27766;52.174;5.456;2022-12-07T06:17:05;101626.19;;;1.83;100.00
42111;BME280;27766;52.174;5.456;2022-12-07T06:19:33;101624.44;;;1.82;100.00
42111;BME280;27766;52.174;5.456;2022-12-07T06:22:00;101620.09;;;1.81;100.00
42111;BME280;27766;52.174;5.456;2022-12-07T06:24:31;101632.69;;;1.92;100.00
42111;BME280;27766;52.174;5.456;2022-12-07T06:26:59;101631.22;;;1.95;100.00
42111;BME280;27766;52.174;5.456;2022-12-07T06:29:26;101630.16;;;1.92;100.00
42111;BME280;27766;52.174;5.456;2022-12-07T06:31:53;101624.94;;;1.90;100.00
42111;BME280;27766;52.174;5.456;2022-12-07T06:34:22;101634.78;;;1.97;100.00
42111;BME280;27766;52.174;5.456;2022-12-07T06:36:50;101620.53;;;2.01;100.00
42111;BME280;27766;52.174;5.456;2022-12-07T06:39:27;101622.31;;;2.02;100.00
42111;BME280;27766;52.174;5.456;2022-12-07T06:41:55;101617.22;;;2.02;100.00
42111;BME280;27766;52.174;5.456;2022-12-07T06:44:23;101623.69;;;2.10;100.00
42111;BME280;27766;52.174;5.456;2022-12-07T06:46:51;101622.09;;;2.12;100.00
42111;BME280;27766;52.174;5.456;2022-12-07T06:49:38;101619.25;;;2.08;100.00
42111;BME280;27766;52.174;5.456;2022-12-07T06:52:08;101617.38;;;2.05;100.00
42111;BME280;27766;52.174;5.456;2022-12-07T06:54:36;101614.44;;;1.99;100.00
42111;BME280;27766;52.174;5.456;2022-12-07T06:57:03;101624.34;;;1.94;100.00
42111;BME280;27766;52.174;5.456;2022-12-07T06:59:30;101628.38;;;1.90;100.00
42111;BME280;27766;52.174;5.456;2022-12-07T07:01:58;101624.72;;;1.87;100.00
42111;BME280;27766;52.174;5.456;2022-12-07T07:04:25;101619.38;;;1.70;100.00
42111;BME280;27766;52.174;5.456;2022-12-07T07:06:52;101637.56;;;1.75;100.00
42111;BME280;27766;52.174;5.456;2022-12-07T07:09:26;101632.84;;;1.68;100.00
42111;BME280;27766;52.174;5.456;2022-12-07T07:11:53;101637.84;;;1.66;100.00
42111;BME280;27766;52.174;5.456;2022-12-07T07:14:20;101622.13;;;1.60;100.00
42111;BME280;27766;52.174;5.456;2022-12-07T07:16:48;101639.63;;;1.67;100.00
42111;BME280;27766;52.174;5.456;2022-12-07T07:19:15;101636.94;;;1.66;100.00
42111;BME280;27766;52.174;5.456;2022-12-07T07:21:42;101633.22;;;1.61;100.00
42111;BME280;27766;52.174;5.456;2022-12-07T07:24:09;101639.41;;;1.64;100.00
42111;BME280;27766;52.174;5.456;2022-12-07T07:26:37;101627.88;;;1.57;100.00
42111;BME280;27766;52.174;5.456;2022-12-07T07:29:04;101629.47;;;1.55;100.00
42111;BME280;27766;52.174;5.456;2022-12-07T07:31:31;101628.47;;;1.53;100.00
42111;BME280;27766;52.174;5.456;2022-12-07T07:34:02;101628.47;;;1.53;100.00
42111;BME280;27766;52.174;5.456;2022-12-07T07:36:29;101635.44;;;1.56;100.00
42111;BME280;27766;52.174;5.456;2022-12-07T07:38:57;101637.91;;;1.54;100.00
42111;BME280;27766;52.174;5.456;2022-12-07T07:41:24;101624.63;;;1.47;100.00
42111;BME280;27766;52.174;5.456;2022-12-07T07:43:51;101633.28;;;1.49;100.00
42111;BME280;27766;52.174;5.456;2022-12-07T07:46:18;101625.97;;;1.41;100.00
42111;BME280;27766;52.174;5.456;2022-12-07T07:48:46;101634.81;;;1.47;100.00
42111;BME280;27766;52.174;5.456;2022-12-07T07:51:13;101629.63;;;1.45;100.00
42111;BME280;27766;52.174;5.456;2022-12-07T07:53:41;101640.25;;;1.51;100.00
42111;BME280;27766;52.174;5.456;2022-12-07T07:56:08;101631.81;;;1.52;100.00
42111;BME280;27766;52.174;5.456;2022-12-07T07:58:35;101621.69;;;1.54;100.00
42111;BME280;27766;52.174;5.456;2022-12-07T08:01:04;101633.94;;;1.71;100.00
42111;BME280;27766;52.174;5.456;2022-12-07T08:03:32;101639.56;;;1.79;100.00
42111;BME280;27766;52.174;5.456;2022-12-07T08:05:59;101643.50;;;1.87;100.00
42111;BME280;27766;52.174;5.456;2022-12-07T08:08:26;101630.63;;;1.86;100.00
42111;BME280;27766;52.174;5.456;2022-12-07T08:10:53;101635.94;;;1.89;100.00
42111;BME280;27766;52.174;5.456;2022-12-07T08:13:21;101649.19;;;1.97;100.00
42111;BME280;27766;52.174;5.456;2022-12-07T08:15:56;101658.72;;;1.99;100.00
42111;BME280;27766;52.174;5.456;2022-12-07T08:18:23;101659.84;;;2.03;100.00
42111;BME280;27766;52.174;5.456;2022-12-07T08:20:50;101650.59;;;2.05;100.00
42111;BME280;27766;52.174;5.456;2022-12-07T08:23:17;101656.00;;;2.10;100.00
42111;BME280;27766;52.174;5.456;2022-12-07T08:25:44;101650.19;;;2.12;100.00
42111;BME280;27766;52.174;5.456;2022-12-07T08:28:12;101652.50;;;2.21;100.00
42111;BME280;27766;52.174;5.456;2022-12-07T08:30:39;101639.59;;;2.19;100.00
42111;BME280;27766;52.174;5.456;2022-12-07T08:33:06;101630.06;;;2.17;100.00
42111;BME280;27766;52.174;5.456;2022-12-07T08:35:33;101651.41;;;2.31;100.00
42111;BME280;27766;52.174;5.456;2022-12-07T08:38:02;101642.28;;;2.34;100.00
42111;BME280;27766;52.174;5.456;2022-12-07T08:40:30;101649.34;;;2.38;100.00
42111;BME280;27766;52.174;5.456;2022-12-07T08:42:58;101649.44;;;2.40;100.00
42111;BME280;27766;52.174;5.456;2022-12-07T08:45:25;101639.53;;;2.45;100.00
42111;BME280;27766;52.174;5.456;2022-12-07T08:47:58;101639.53;;;2.45;100.00
42111;BME280;27766;52.174;5.456;2022-12-07T08:50:29;101646.97;;;2.55;100.00
42111;BME280;27766;52.174;5.456;2022-12-07T08:52:59;101647.19;;;2.58;100.00
42111;BME280;27766;52.174;5.456;2022-12-07T08:55:27;101638.44;;;2.55;100.00
42111;BME280;27766;52.174;5.456;2022-12-07T08:57:57;101630.78;;;2.55;100.00
42111;BME280;27766;52.174;5.456;2022-12-07T09:00:25;101637.03;;;2.60;100.00
42111;BME280;27766;52.174;5.456;2022-12-07T09:02:53;101638.03;;;2.62;100.00
42111;BME280;27766;52.174;5.456;2022-12-07T09:05:20;101639.59;;;2.60;100.00
42111;BME280;27766;52.174;5.456;2022-12-07T09:07:50;101647.66;;;2.66;100.00
42111;BME280;27766;52.174;5.456;2022-12-07T09:10:18;101646.16;;;2.69;100.00
42111;BME280;27766;52.174;5.456;2022-12-07T09:12:45;101646.28;;;2.71;100.00
42111;BME280;27766;52.174;5.456;2022-12-07T09:15:13;101638.91;;;2.76;100.00
42111;BME280;27766;52.174;5.456;2022-12-07T09:17:41;101638.50;;;2.83;100.00
42111;BME280;27766;52.174;5.456;2022-12-07T09:20:08;101650.97;;;2.92;100.00
42111;BME280;27766;52.174;5.456;2022-12-07T09:22:36;101642.69;;;2.96;100.00
42111;BME280;27766;52.174;5.456;2022-12-07T09:25:03;101651.84;;;3.06;100.00
42111;BME280;27766;52.174;5.456;2022-12-07T09:27:35;101651.22;;;3.10;100.00
42111;BME280;27766;52.174;5.456;2022-12-07T09:30:04;101655.84;;;3.15;100.00
42111;BME280;27766;52.174;5.456;2022-12-07T09:32:34;101655.41;;;3.23;100.00
42111;BME280;27766;52.174;5.456;2022-12-07T09:35:02;101659.75;;;3.24;100.00
42111;BME280;27766;52.174;5.456;2022-12-07T09:37:29;101661.31;;;3.22;100.00
42111;BME280;27766;52.174;5.456;2022-12-07T09:39:59;101648.72;;;3.25;100.00
42111;BME280;27766;52.174;5.456;2022-12-07T09:42:29;101654.78;;;3.27;100.00
42111;BME280;27766;52.174;5.456;2022-12-07T09:44:59;101651.56;;;3.29;100.00
42111;BME280;27766;52.174;5.456;2022-12-07T09:47:28;101647.53;;;3.33;100.00
42111;BME280;27766;52.174;5.456;2022-12-07T09:50:05;101651.03;;;3.35;100.00
42111;BME280;27766;52.174;5.456;2022-12-07T09:52:33;101651.03;;;3.35;100.00
42111;BME280;27766;52.174;5.456;2022-12-07T09:55:11;101651.22;;;3.38;100.00
42111;BME280;27766;52.174;5.456;2022-12-07T09:57:39;101640.91;;;3.37;100.00
42111;BME280;27766;52.174;5.456;2022-12-07T10:00:13;101650.44;;;3.39;100.00
42111;BME280;27766;52.174;5.456;2022-12-07T10:02:46;101646.19;;;3.40;100.00
42111;BME280;27766;52.174;5.456;2022-12-07T10:08:22;101634.88;;;3.36;100.00
42111;BME280;27766;52.174;5.456;2022-12-07T10:10:52;101635.69;;;3.35;100.00
42111;BME280;27766;52.174;5.456;2022-12-07T10:13:42;101632.31;;;3.36;100.00
42111;BME280;27766;52.174;5.456;2022-12-07T10:16:39;101629.53;;;3.46;100.00
42111;BME280;27766;52.174;5.456;2022-12-07T10:19:23;101622.66;;;3.60;100.00
42111;BME280;27766;52.174;5.456;2022-12-07T10:22:15;101604.66;;;3.59;100.00
42111;BME280;27766;52.174;5.456;2022-12-07T10:24:46;101625.25;;;3.75;100.00
42111;BME280;27766;52.174;5.456;2022-12-07T10:27:34;101607.94;;;3.71;100.00
42111;BME280;27766;52.174;5.456;2022-12-07T10:30:07;101625.16;;;3.74;100.00
42111;BME280;27766;52.174;5.456;2022-12-07T10:32:35;101618.28;;;3.73;100.00
42111;BME280;27766;52.174;5.456;2022-12-07T10:35:30;101614.72;;;3.71;100.00
42111;BME280;27766;52.174;5.456;2022-12-07T10:38:00;101612.09;;;3.69;100.00
42111;BME280;27766;52.174;5.456;2022-12-07T10:40:35;101617.38;;;3.72;100.00
42111;BME280;27766;52.174;5.456;2022-12-07T10:48:47;101602.91;;;3.88;100.00
42111;BME280;27766;52.174;5.456;2022-12-07T10:51:25;101596.47;;;3.94;100.00
42111;BME280;27766;52.174;5.456;2022-12-07T10:54:08;101599.28;;;3.99;100.00
42111;BME280;27766;52.174;5.456;2022-12-07T11:05:23;101595.50;;;4.39;100.00
42111;BME280;27766;52.174;5.456;2022-12-07T11:11:01;101595.16;;;4.48;100.00
42111;BME280;27766;52.174;5.456;2022-12-07T11:19:35;101575.72;;;4.36;100.00
42111;BME280;27766;52.174;5.456;2022-12-07T11:28:06;101570.25;;;4.30;100.00
42111;BME280;27766;52.174;5.456;2022-12-07T11:31:05;101561.25;;;4.22;100.00
42111;BME280;27766;52.174;5.456;2022-12-07T11:33:47;101552.44;;;4.17;100.00
42111;BME280;27766;52.174;5.456;2022-12-07T11:39:11;101566.44;;;4.38;100.00
42111;BME280;27766;52.174;5.456;2022-12-07T11:41:42;101567.63;;;4.45;100.00
42111;BME280;27766;52.174;5.456;2022-12-07T11:44:27;101546.44;;;4.48;100.00
42111;BME280;27766;52.174;5.456;2022-12-07T11:49:43;101552.38;;;4.63;100.00
42111;BME280;27766;52.174;5.456;2022-12-07T11:52:26;101552.06;;;4.73;100.00
42111;BME280;27766;52.174;5.456;2022-12-07T11:54:54;101543.81;;;4.79;100.00
42111;BME280;27766;52.174;5.456;2022-12-07T11:57:37;101539.91;;;4.86;100.00
42111;BME280;27766;52.174;5.456;2022-12-07T12:00:13;101550.97;;;5.01;100.00
42111;BME280;27766;52.174;5.456;2022-12-07T12:02:51;101546.94;;;5.06;100.00
42111;BME280;27766;52.174;5.456;2022-12-07T12:05:24;101535.88;;;5.07;100.00
42111;BME280;27766;52.174;5.456;2022-12-07T12:11:18;101529.78;;;5.05;100.00
42111;BME280;27766;52.174;5.456;2022-12-07T12:22:36;101527.78;;;5.00;100.00
42111;BME280;27766;52.174;5.456;2022-12-07T12:25:06;101522.16;;;5.07;100.00
42111;BME280;27766;52.174;5.456;2022-12-07T12:27:37;101516.28;;;5.10;100.00
42111;BME280;27766;52.174;5.456;2022-12-07T12:30:23;101509.09;;;5.02;100.00
42111;BME280;27766;52.174;5.456;2022-12-07T12:32:51;101514.38;;;5.05;100.00
42111;BME280;27766;52.174;5.456;2022-12-07T12:35:34;101516.09;;;5.05;100.00
42111;BME280;27766;52.174;5.456;2022-12-07T12:40:54;101499.84;;;5.22;100.00
42111;BME280;27766;52.174;5.456;2022-12-07T12:43:44;101496.28;;;5.37;100.00
42111;BME280;27766;52.174;5.456;2022-12-07T12:51:43;101501.22;;;5.32;100.00
42111;BME280;27766;52.174;5.456;2022-12-07T12:54:15;101487.25;;;5.27;100.00
42111;BME280;27766;52.174;5.456;2022-12-07T12:59:28;101503.47;;;5.10;100.00
42111;BME280;27766;52.174;5.456;2022-12-07T13:02:09;101507.59;;;4.73;100.00
42111;BME280;27766;52.174;5.456;2022-12-07T13:05:00;101505.78;;;4.39;100.00
42111;BME280;27766;52.174;5.456;2022-12-07T13:10:42;101497.28;;;3.77;100.00
42111;BME280;27766;52.174;5.456;2022-12-07T13:15:51;101497.66;;;3.53;100.00
42111;BME280;27766;52.174;5.456;2022-12-07T13:18:36;101478.34;;;3.43;100.00
42111;BME280;27766;52.174;5.456;2022-12-07T13:29:18;101469.19;;;3.32;100.00
42111;BME280;27766;52.174;5.456;2022-12-07T13:31:49;101457.44;;;3.36;100.00
42111;BME280;27766;52.174;5.456;2022-12-07T13:34:37;101456.72;;;3.38;100.00
42111;BME280;27766;52.174;5.456;2022-12-07T13:39:49;101452.81;;;3.45;100.00
42111;BME280;27766;52.174;5.456;2022-12-07T13:42:33;101453.09;;;3.49;100.00
42111;BME280;27766;52.174;5.456;2022-12-07T13:45:24;101442.31;;;3.55;100.00
42111;BME280;27766;52.174;5.456;2022-12-07T13:48:36;101444.34;;;3.61;100.00
42111;BME280;27766;52.174;5.456;2022-12-07T13:51:17;101447.88;;;3.63;100.00
42111;BME280;27766;52.174;5.456;2022-12-07T13:53:50;101446.25;;;3.65;100.00
42111;BME280;27766;52.174;5.456;2022-12-07T13:56:17;101448.22;;;3.69;100.00
42111;BME280;27766;52.174;5.456;2022-12-07T13:58:44;101433.72;;;3.70;100.00
42111;BME280;27766;52.174;5.456;2022-12-07T14:01:12;101438.13;;;3.72;100.00
42111;BME280;27766;52.174;5.456;2022-12-07T14:03:40;101428.00;;;3.74;100.00
42111;BME280;27766;52.174;5.456;2022-12-07T14:06:17;101420.13;;;3.71;100.00
42111;BME280;27766;52.174;5.456;2022-12-07T14:08:45;101431.75;;;3.80;100.00
42111;BME280;27766;52.174;5.456;2022-12-07T14:11:16;101425.94;;;3.83;100.00
42111;BME280;27766;52.174;5.456;2022-12-07T14:13:56;101420.25;;;3.89;100.00
42111;BME280;27766;52.174;5.456;2022-12-07T14:16:32;101426.16;;;3.88;100.00
42111;BME280;27766;52.174;5.456;2022-12-07T14:19:02;101423.97;;;3.94;100.00
42111;BME280;27766;52.174;5.456;2022-12-07T14:21:33;101419.88;;;3.98;100.00
42111;BME280;27766;52.174;5.456;2022-12-07T14:24:15;101399.69;;;3.87;100.00
42111;BME280;27766;52.174;5.456;2022-12-07T14:26:45;101403.13;;;3.88;100.00
42111;BME280;27766;52.174;5.456;2022-12-07T14:29:20;101407.63;;;3.92;100.00
42111;BME280;27766;52.174;5.456;2022-12-07T14:31:47;101399.75;;;3.89;100.00
42111;BME280;27766;52.174;5.456;2022-12-07T14:34:15;101409.47;;;3.94;100.00
42111;BME280;27766;52.174;5.456;2022-12-07T14:36:42;101403.28;;;3.91;100.00
42111;BME280;27766;52.174;5.456;2022-12-07T14:39:10;101402.25;;;3.87;100.00
42111;BME280;27766;52.174;5.456;2022-12-07T14:41:40;101395.38;;;3.86;100.00
42111;BME280;27766;52.174;5.456;2022-12-07T14:44:21;101395.53;;;3.89;100.00
42111;BME280;27766;52.174;5.456;2022-12-07T14:46:52;101392.00;;;3.87;100.00
42111;BME280;27766;52.174;5.456;2022-12-07T14:49:40;101379.41;;;3.75;100.00